Time,TemperatureF,DewpointF,PressureIn,WindDirection,WindDirectionDegrees,WindSpeedMPH,WindSpeedGustMPH,Humidity,HourlyPrecipIn,Conditions,Clouds,dailyrainin,SoftwareType,DateUTC
2013-09-12 00:01:00,65.2,61.2,29.90,NW,322,0.0,0.0,87,0.02,RA,,0.00,WeatherDisplay:10.37,2013-09-12 04:01:00,
2013-09-12 00:02:00,65.2,61.2,29.90,NW,322,0.0,0.0,87,0.02,RA,,0.00,WeatherDisplay:10.37,2013-09-12 04:02:00,
2013-09-12 00:07:00,65.1,61.1,29.90,NW,322,2.3,2.3,87,0.02,SCT,,0.00,WeatherDisplay:10.37,2013-09-12 04:07:00,
2013-09-12 00:12:00,65.0,61.0,29.90,NW,322,2.3,2.3,87,0.02,SCT,,0.00,WeatherDisplay:10.37,2013-09-12 04:12:00,
2013-09-12 00:17:00,65.2,61.2,29.90,NW,322,0.0,0.0,87,0.01,SCT,,0.00,WeatherDisplay:10.37,2013-09-12 04:17:00,
2013-09-12 00:22:00,65.3,61.3,29.90,NW,322,1.1,1.1,87,0.01,SCT,,0.00,WeatherDisplay:10.37,2013-09-12 04:22:00,
2013-09-12 00:27:00,65.5,61.5,29.90,NW,322,3.5,3.5,87,0.01,SCT,,0.00,WeatherDisplay:10.37,2013-09-12 04:27:00,
2013-09-12 00:32:00,65.4,61.4,29.90,NW,322,0.0,0.0,87,0.01,SCT,,0.00,WeatherDisplay:10.37,2013-09-12 04:32:00,
2013-09-12 00:37:00,65.8,61.8,29.90,NW,322,2.3,2.3,87,0.01,SCT,,0.00,WeatherDisplay:10.37,2013-09-12 04:37:00,
2013-09-12 00:42:00,65.3,61.3,29.90,NW,321,3.5,3.5,87,0.01,SCT,,0.00,WeatherDisplay:10.37,2013-09-12 04:42:00,
2013-09-12 00:47:00,65.3,61.3,29.90,NW,321,1.1,1.1,87,0.00,SCT,,0.00,WeatherDisplay:10.37,2013-09-12 04:47:00,
2013-09-12 00:52:00,64.9,60.9,29.90,NW,321,0.0,0.1,87,0.00,SCT,,0.00,WeatherDisplay:10.37,2013-09-12 04:52:00,
2013-09-12 00:57:00,64.6,60.6,29.90,NW,321,0.0,0.0,87,0.00,SCT,,0.00,WeatherDisplay:10.37,2013-09-12 04:57:00,
2013-09-12 01:02:00,65.0,61.0,29.90,NW,321,1.1,1.1,87,0.00,SCT,,0.00,WeatherDisplay:10.37,2013-09-12 05:02:00,
2013-09-12 01:07:00,64.9,60.9,29.90,NW,321,0.0,0.0,87,0.00,SCT,,0.00,WeatherDisplay:10.37,2013-09-12 05:07:00,
2013-09-12 01:12:00,64.9,64.9,29.93,NW,321,0.0,0.0,100,0.00,CLR,,0.00,WeatherDisplay:10.37,2013-09-12 05:12:00,
2013-09-12 01:17:00,64.8,64.8,29.93,NW,321,0.0,0.0,100,0.00,CLR,,0.00,WeatherDisplay:10.37,2013-09-12 05:17:00,
2013-09-12 01:22:00,65.0,65.0,29.93,NW,321,0.0,0.0,100,0.00,CLR,,0.00,WeatherDisplay:10.37,2013-09-12 05:22:00,
2013-09-12 01:27:00,65.1,65.1,29.93,NW,321,0.0,0.0,100,0.00,CLR,,0.00,WeatherDisplay:10.37,2013-09-12 05:27:00,
2013-09-12 01:32:00,65.1,65.1,29.93,NW,321,0.0,0.0,100,0.00,CLR,,0.00,WeatherDisplay:10.37,2013-09-12 05:32:00,
2013-09-12 01:37:00,64.5,64.5,29.93,NW,321,0.0,0.0,100,0.00,CLR,,0.00,WeatherDisplay:10.37,2013-09-12 05:37:00,
2013-09-12 01:42:00,64.2,64.2,29.93,NW,321,0.0,0.0,100,0.00,CLR,,0.00,WeatherDisplay:10.37,2013-09-12 05:42:00,
2013-09-12 01:47:00,64.2,64.2,29.93,NW,321,0.0,0.0,100,0.00,CLR,,0.00,WeatherDisplay:10.37,2013-09-12 05:47:00,
2013-09-12 01:52:00,64.3,64.3,29.93,NW,321,0.0,0.0,100,0.00,CLR,,0.00,WeatherDisplay:10.37,2013-09-12 05:52:00,
2013-09-12 01:57:00,64.5,64.5,29.93,NW,321,0.0,0.0,100,0.00,CLR,,0.00,WeatherDisplay:10.37,2013-09-12 05:57:00,
2013-09-12 02:02:00,64.2,64.2,29.93,NW,321,0.0,0.0,100,0.00,CLR,,0.00,WeatherDisplay:10.37,2013-09-12 06:02:00,
2013-09-12 02:07:00,64.1,64.1,29.93,NW,321,0.0,0.0,100,0.00,CLR,,0.00,WeatherDisplay:10.37,2013-09-12 06:07:00,
2013-09-12 02:12:00,64.2,63.0,29.92,NW,321,0.0,0.0,96,0.00,CLR,,0.00,WeatherDisplay:10.37,2013-09-12 06:12:00,
2013-09-12 02:17:00,64.1,62.9,29.92,NW,321,0.0,0.0,96,0.00,CLR,,0.00,WeatherDisplay:10.37,2013-09-12 06:17:00,
2013-09-12 02:22:00,64.0,62.8,29.92,NW,321,0.0,0.0,96,0.00,CLR,,0.00,WeatherDisplay:10.37,2013-09-12 06:22:00,
2013-09-12 02:27:00,63.8,62.6,29.92,NW,321,0.0,0.0,96,0.00,CLR,,0.00,WeatherDisplay:10.37,2013-09-12 06:27:00,
2013-09-12 02:32:00,64.0,62.8,29.92,NW,321,0.0,0.0,96,0.00,CLR,,0.00,WeatherDisplay:10.37,2013-09-12 06:32:00,
2013-09-12 02:37:00,63.9,62.7,29.92,NW,321,0.0,0.0,96,0.00,CLR,,0.00,WeatherDisplay:10.37,2013-09-12 06:37:00,
2013-09-12 02:42:00,63.9,62.7,29.92,NW,321,0.0,0.0,96,0.00,CLR,,0.00,WeatherDisplay:10.37,2013-09-12 06:42:00,
2013-09-12 02:47:00,63.8,62.6,29.92,NW,321,0.0,0.0,96,0.00,CLR,,0.00,WeatherDisplay:10.37,2013-09-12 06:47:00,
2013-09-12 02:52:00,63.9,62.7,29.92,NW,321,0.0,0.0,96,0.00,CLR,,0.00,WeatherDisplay:10.37,2013-09-12 06:52:00,
2013-09-12 02:57:00,63.6,62.4,29.92,NW,321,0.0,0.0,96,0.00,CLR,,0.00,WeatherDisplay:10.37,2013-09-12 06:57:00,
2013-09-12 03:02:00,63.6,62.4,29.92,NW,321,0.0,0.0,96,0.00,CLR,,0.00,WeatherDisplay:10.37,2013-09-12 07:02:00,
2013-09-12 03:07:00,63.6,62.4,29.92,NW,321,0.0,0.0,96,0.00,CLR,,0.00,WeatherDisplay:10.37,2013-09-12 07:07:00,
2013-09-12 03:12:00,63.6,63.6,29.91,NW,321,0.0,0.0,100,0.00,CLR,,0.00,WeatherDisplay:10.37,2013-09-12 07:12:00,
2013-09-12 03:17:00,63.7,63.7,29.91,NW,321,0.0,0.0,100,0.00,CLR,,0.00,WeatherDisplay:10.37,2013-09-12 07:17:00,
2013-09-12 03:22:00,63.8,63.8,29.91,NW,321,0.0,0.0,100,0.00,CLR,,0.00,WeatherDisplay:10.37,2013-09-12 07:22:00,
2013-09-12 03:27:00,63.9,63.9,29.91,NW,321,0.0,0.0,100,0.00,CLR,,0.00,WeatherDisplay:10.37,2013-09-12 07:27:00,
2013-09-12 03:32:00,63.9,63.9,29.91,NW,321,0.0,0.0,100,0.00,CLR,,0.00,WeatherDisplay:10.37,2013-09-12 07:32:00,
2013-09-12 03:37:00,63.7,63.7,29.91,NW,321,0.0,0.0,100,0.00,CLR,,0.00,WeatherDisplay:10.37,2013-09-12 07:37:00,
2013-09-12 03:42:00,63.7,63.7,29.91,NW,321,0.0,0.0,100,0.00,CLR,,0.00,WeatherDisplay:10.37,2013-09-12 07:42:00,
2013-09-12 03:47:00,63.7,63.7,29.91,NW,321,0.0,0.0,100,0.00,CLR,,0.00,WeatherDisplay:10.37,2013-09-12 07:47:00,
2013-09-12 03:52:00,63.7,63.7,29.91,NW,321,0.0,0.0,100,0.00,CLR,,0.00,WeatherDisplay:10.37,2013-09-12 07:52:00,
2013-09-12 03:57:00,63.7,63.7,29.91,NW,321,0.0,0.0,100,0.00,CLR,,0.00,WeatherDisplay:10.37,2013-09-12 07:57:00,
2013-09-12 04:02:00,63.7,63.7,29.91,NW,321,0.0,0.0,100,0.00,CLR,,0.00,WeatherDisplay:10.37,2013-09-12 08:02:00,
2013-09-12 04:07:00,63.6,63.6,29.91,NW,321,0.0,0.0,100,0.00,CLR,,0.00,WeatherDisplay:10.37,2013-09-12 08:07:00,
2013-09-12 04:12:00,63.5,63.5,29.93,NW,321,0.0,0.0,100,0.00,CLR,,0.00,WeatherDisplay:10.37,2013-09-12 08:12:00,
2013-09-12 04:17:00,63.7,63.7,29.93,NW,321,0.0,0.0,100,0.00,CLR,,0.00,WeatherDisplay:10.37,2013-09-12 08:17:00,
2013-09-12 04:22:00,63.9,63.9,29.93,NW,321,0.0,0.0,100,0.00,CLR,,0.00,WeatherDisplay:10.37,2013-09-12 08:22:00,
2013-09-12 04:27:00,63.9,63.9,29.93,NW,321,0.0,0.0,100,0.00,CLR,,0.00,WeatherDisplay:10.37,2013-09-12 08:27:00,
2013-09-12 04:32:00,63.6,63.6,29.93,NW,321,0.0,0.0,100,0.00,CLR,,0.00,WeatherDisplay:10.37,2013-09-12 08:32:00,
2013-09-12 04:37:00,63.4,63.4,29.93,NW,321,0.0,0.0,100,0.00,CLR,,0.00,WeatherDisplay:10.37,2013-09-12 08:37:00,
2013-09-12 04:42:00,63.6,63.6,29.93,NW,321,0.0,0.0,100,0.00,CLR,,0.00,WeatherDisplay:10.37,2013-09-12 08:42:00,
2013-09-12 04:47:00,63.6,63.6,29.93,NW,321,0.0,0.0,100,0.00,CLR,,0.00,WeatherDisplay:10.37,2013-09-12 08:47:00,
2013-09-12 04:52:00,63.6,63.6,29.93,NW,321,0.0,0.0,100,0.00,CLR,,0.00,WeatherDisplay:10.37,2013-09-12 08:52:00,
2013-09-12 04:57:00,63.7,63.7,29.93,NW,321,0.0,0.0,100,0.00,CLR,,0.00,WeatherDisplay:10.37,2013-09-12 08:57:00,
2013-09-12 05:02:00,63.5,63.5,29.93,NW,321,0.0,0.0,100,0.00,CLR,,0.00,WeatherDisplay:10.37,2013-09-12 09:02:00,
2013-09-12 05:08:00,63.4,63.4,29.93,NW,321,0.0,0.0,100,0.00,CLR,,0.00,WeatherDisplay:10.37,2013-09-12 09:08:00,
2013-09-12 05:13:00,63.4,62.2,29.92,NW,321,0.0,0.0,96,0.00,SCT,,0.00,WeatherDisplay:10.37,2013-09-12 09:13:00,
2013-09-12 05:18:00,63.3,62.1,29.92,NW,321,0.0,0.0,96,0.00,SCT,,0.00,WeatherDisplay:10.37,2013-09-12 09:18:00,
2013-09-12 05:23:00,63.3,62.1,29.92,NW,321,0.0,0.0,96,0.00,SCT,,0.00,WeatherDisplay:10.37,2013-09-12 09:23:00,
2013-09-12 05:28:00,63.2,62.0,29.92,NW,321,0.0,0.0,96,0.00,SCT,,0.00,WeatherDisplay:10.37,2013-09-12 09:28:00,
2013-09-12 05:33:00,63.2,62.0,29.92,NW,321,0.0,0.0,96,0.00,SCT,,0.00,WeatherDisplay:10.37,2013-09-12 09:33:00,
2013-09-12 05:38:00,63.3,62.1,29.92,NW,321,0.0,0.0,96,0.00,SCT,,0.00,WeatherDisplay:10.37,2013-09-12 09:38:00,
2013-09-12 05:43:00,63.1,61.9,29.92,NW,321,0.0,0.0,96,0.00,SCT,,0.00,WeatherDisplay:10.37,2013-09-12 09:43:00,
2013-09-12 05:48:00,63.0,61.8,29.92,NW,321,0.0,0.0,96,0.00,SCT,,0.00,WeatherDisplay:10.37,2013-09-12 09:48:00,
2013-09-12 05:53:00,63.0,61.8,29.92,NW,321,0.0,0.0,96,0.00,SCT,,0.00,WeatherDisplay:10.37,2013-09-12 09:53:00,
2013-09-12 05:58:00,62.9,61.7,29.92,NW,321,0.0,0.0,96,0.00,SCT,,0.00,WeatherDisplay:10.37,2013-09-12 09:58:00,
2013-09-12 06:03:00,63.0,60.9,29.91,NW,321,0.0,0.0,93,0.00,BKN,,0.00,WeatherDisplay:10.37,2013-09-12 10:03:00,
2013-09-12 06:08:00,63.0,60.9,29.91,NW,321,0.0,0.0,93,0.00,BKN,,0.00,WeatherDisplay:10.37,2013-09-12 10:08:00,
2013-09-12 06:13:00,62.8,60.7,29.91,NW,321,0.0,0.0,93,0.00,BKN,,0.00,WeatherDisplay:10.37,2013-09-12 10:13:00,
2013-09-12 06:18:00,62.8,60.7,29.91,NW,321,0.0,0.0,93,0.00,BKN,,0.00,WeatherDisplay:10.37,2013-09-12 10:18:00,
2013-09-12 06:23:00,62.8,60.7,29.91,NW,321,0.0,0.0,93,0.00,BKN,,0.00,WeatherDisplay:10.37,2013-09-12 10:23:00,
2013-09-12 06:28:00,62.8,60.7,29.91,NW,321,0.0,0.0,93,0.00,BKN,,0.00,WeatherDisplay:10.37,2013-09-12 10:28:00,
2013-09-12 06:33:00,62.9,60.8,29.91,NW,321,0.0,0.0,93,0.00,BKN,,0.00,WeatherDisplay:10.37,2013-09-12 10:33:00,
2013-09-12 06:38:00,62.7,60.6,29.91,NW,321,0.0,0.0,93,0.00,BKN,,0.00,WeatherDisplay:10.37,2013-09-12 10:38:00,
2013-09-12 06:43:00,62.9,60.8,29.91,NW,321,0.0,0.0,93,0.00,BKN,,0.00,WeatherDisplay:10.37,2013-09-12 10:43:00,
2013-09-12 06:48:00,63.2,61.1,29.91,NW,321,0.0,0.0,93,0.00,BKN,,0.00,WeatherDisplay:10.37,2013-09-12 10:48:00,
2013-09-12 06:53:00,63.1,61.0,29.91,NW,321,0.0,0.0,93,0.00,BKN,,0.00,WeatherDisplay:10.37,2013-09-12 10:53:00,
2013-09-12 06:58:00,63.0,60.9,29.91,NW,321,0.0,0.0,93,0.00,BKN,,0.00,WeatherDisplay:10.37,2013-09-12 10:58:00,
2013-09-12 07:03:00,63.1,61.0,29.91,NW,321,0.0,0.0,93,0.00,BKN,,0.00,WeatherDisplay:10.37,2013-09-12 11:03:00,
2013-09-12 07:08:00,63.5,61.4,29.91,NW,321,0.0,0.0,93,0.00,BKN,,0.00,WeatherDisplay:10.37,2013-09-12 11:08:00,
2013-09-12 07:13:00,63.5,61.4,29.91,NW,321,0.0,0.0,93,0.00,BKN,,0.00,WeatherDisplay:10.37,2013-09-12 11:13:00,
2013-09-12 07:18:00,63.7,61.6,29.91,NW,321,0.0,0.0,93,0.00,BKN,,0.00,WeatherDisplay:10.37,2013-09-12 11:18:00,
2013-09-12 07:23:00,64.2,62.1,29.91,NW,321,0.0,0.0,93,0.00,BKN,,0.00,WeatherDisplay:10.37,2013-09-12 11:23:00,
2013-09-12 07:28:00,64.3,62.2,29.91,NW,321,0.0,0.0,93,0.00,BKN,,0.00,WeatherDisplay:10.37,2013-09-12 11:28:00,
2013-09-12 07:33:00,64.5,62.4,29.91,NW,321,0.0,0.0,93,0.00,BKN,,0.00,WeatherDisplay:10.37,2013-09-12 11:33:00,
2013-09-12 07:38:00,64.4,62.3,29.91,NW,321,0.0,0.0,93,0.00,BKN,,0.00,WeatherDisplay:10.37,2013-09-12 11:38:00,
2013-09-12 07:43:00,64.6,62.5,29.91,NW,321,0.0,0.0,93,0.00,BKN,,0.00,WeatherDisplay:10.37,2013-09-12 11:43:00,
2013-09-12 07:48:00,64.8,62.7,29.91,NW,321,0.0,0.0,93,0.00,BKN,,0.00,WeatherDisplay:10.37,2013-09-12 11:48:00,
2013-09-12 07:53:00,65.0,62.9,29.91,NW,321,0.0,0.0,93,0.00,BKN,,0.00,WeatherDisplay:10.37,2013-09-12 11:53:00,
2013-09-12 07:58:00,65.1,63.0,29.91,NW,321,0.0,0.0,93,0.00,BKN,,0.00,WeatherDisplay:10.37,2013-09-12 11:58:00,
2013-09-12 08:03:00,65.1,62.1,29.90,NW,321,0.0,0.0,90,0.00,BKN,,0.00,WeatherDisplay:10.37,2013-09-12 12:03:00,
2013-09-12 08:08:00,65.6,62.6,29.90,NW,321,0.0,0.0,90,0.00,BKN,,0.00,WeatherDisplay:10.37,2013-09-12 12:08:00,
2013-09-12 08:13:00,65.2,62.2,29.90,NW,321,0.0,0.0,90,0.00,BKN,,0.00,WeatherDisplay:10.37,2013-09-12 12:13:00,
2013-09-12 08:18:00,65.1,62.1,29.90,NW,321,0.0,0.0,90,0.00,BKN,,0.00,WeatherDisplay:10.37,2013-09-12 12:18:00,
2013-09-12 08:23:00,65.0,62.0,29.90,NW,321,0.0,0.0,90,0.00,BKN,,0.00,WeatherDisplay:10.37,2013-09-12 12:23:00,
2013-09-12 08:28:00,64.9,61.9,29.90,NW,321,0.0,0.0,90,0.01,RA,,0.01,WeatherDisplay:10.37,2013-09-12 12:28:00,
2013-09-12 08:33:00,65.1,62.1,29.90,NW,321,0.0,0.0,90,0.01,BKN,,0.01,WeatherDisplay:10.37,2013-09-12 12:33:00,
2013-09-12 08:38:00,64.9,61.9,29.90,NW,321,0.0,0.0,90,0.01,BKN,,0.01,WeatherDisplay:10.37,2013-09-12 12:38:00,
2013-09-12 08:43:00,65.0,62.0,29.90,NW,321,0.0,0.0,90,0.02,BKN,,0.02,WeatherDisplay:10.37,2013-09-12 12:43:00,
2013-09-12 08:48:00,65.1,62.1,29.90,NW,321,0.0,0.0,90,0.02,BKN,,0.02,WeatherDisplay:10.37,2013-09-12 12:48:00,
2013-09-12 08:53:00,65.2,62.2,29.90,NW,321,0.0,0.0,90,0.02,BKN,,0.02,WeatherDisplay:10.37,2013-09-12 12:53:00,
2013-09-12 08:58:00,65.3,62.3,29.90,NW,321,0.0,0.0,90,0.02,BKN,,0.02,WeatherDisplay:10.37,2013-09-12 12:58:00,
2013-09-12 09:03:00,65.5,62.5,29.87,NW,321,0.0,0.0,90,0.02,FEW,,0.02,WeatherDisplay:10.37,2013-09-12 13:03:00,
2013-09-12 09:08:00,66.5,63.5,29.87,NW,321,0.0,0.0,90,0.02,FEW,,0.02,WeatherDisplay:10.37,2013-09-12 13:08:00,
2013-09-12 09:13:00,66.6,63.6,29.87,NW,321,0.0,0.0,90,0.02,FEW,,0.02,WeatherDisplay:10.37,2013-09-12 13:13:00,
2013-09-12 09:18:00,66.6,63.6,29.87,NW,321,0.0,0.0,90,0.02,FEW,,0.02,WeatherDisplay:10.37,2013-09-12 13:18:00,
2013-09-12 09:23:00,66.8,63.8,29.87,NW,321,0.0,0.0,90,0.02,FEW,,0.02,WeatherDisplay:10.37,2013-09-12 13:23:00,
2013-09-12 09:28:00,66.4,63.4,29.87,NW,321,0.0,0.0,90,0.01,FEW,,0.02,WeatherDisplay:10.37,2013-09-12 13:28:00,
2013-09-12 09:33:00,66.6,63.6,29.87,NW,321,0.0,0.0,90,0.01,FEW,,0.02,WeatherDisplay:10.37,2013-09-12 13:33:00,
2013-09-12 09:38:00,66.8,63.8,29.87,NW,321,0.0,0.0,90,0.01,FEW,,0.02,WeatherDisplay:10.37,2013-09-12 13:38:00,
2013-09-12 09:43:00,66.1,63.1,29.87,NW,321,0.0,0.0,90,0.00,FEW,,0.02,WeatherDisplay:10.37,2013-09-12 13:43:00,
2013-09-12 09:48:00,66.3,63.3,29.87,NW,321,0.0,0.0,90,0.00,FEW,,0.02,WeatherDisplay:10.37,2013-09-12 13:48:00,
2013-09-12 09:53:00,66.2,63.2,29.87,NW,321,1.1,1.1,90,0.00,FEW,,0.02,WeatherDisplay:10.37,2013-09-12 13:53:00,
2013-09-12 09:58:00,66.4,63.4,29.87,NW,321,0.0,0.0,90,0.00,FEW,,0.02,WeatherDisplay:10.37,2013-09-12 13:58:00,
2013-09-12 10:03:00,66.5,63.5,29.87,NW,321,0.0,0.0,90,0.01,RA,,0.03,WeatherDisplay:10.37,2013-09-12 14:03:00,
2013-09-12 10:08:00,66.4,63.4,29.87,NW,321,0.0,0.0,90,0.01,FEW,,0.03,WeatherDisplay:10.37,2013-09-12 14:08:00,
2013-09-12 10:13:00,66.6,60.6,29.86,NW,321,0.0,0.0,81,0.01,CLR,,0.03,WeatherDisplay:10.37,2013-09-12 14:13:00,
2013-09-12 10:18:00,67.4,61.4,29.86,NW,321,0.0,0.0,81,0.01,CLR,,0.03,WeatherDisplay:10.37,2013-09-12 14:18:00,
2013-09-12 10:23:00,68.1,62.0,29.86,NW,321,0.0,0.0,81,0.01,CLR,,0.03,WeatherDisplay:10.37,2013-09-12 14:23:00,
2013-09-12 10:28:00,69.0,62.9,29.86,NW,321,0.0,0.0,81,0.01,CLR,,0.03,WeatherDisplay:10.37,2013-09-12 14:28:00,
2013-09-12 10:33:00,68.4,62.3,29.86,NW,321,0.0,0.0,81,0.01,CLR,,0.03,WeatherDisplay:10.37,2013-09-12 14:33:00,
2013-09-12 10:38:00,68.0,61.9,29.86,NW,321,0.0,0.0,81,0.01,CLR,,0.03,WeatherDisplay:10.37,2013-09-12 14:38:00,
2013-09-12 10:43:00,68.1,62.0,29.86,NW,321,0.0,0.0,81,0.01,CLR,,0.03,WeatherDisplay:10.37,2013-09-12 14:43:00,
2013-09-12 10:48:00,67.8,61.8,29.86,NW,321,0.0,0.0,81,0.01,CLR,,0.03,WeatherDisplay:10.37,2013-09-12 14:48:00,
2013-09-12 10:53:00,67.7,61.7,29.86,NW,321,0.0,0.0,81,0.01,CLR,,0.03,WeatherDisplay:10.37,2013-09-12 14:53:00,
2013-09-12 10:58:00,67.5,61.5,29.86,NW,321,0.0,0.0,81,0.01,CLR,,0.03,WeatherDisplay:10.37,2013-09-12 14:58:00,
2013-09-12 11:03:00,67.3,61.3,29.86,NW,321,0.0,0.0,81,0.01,CLR,,0.04,WeatherDisplay:10.37,2013-09-12 15:03:00,
2013-09-12 11:08:00,67.2,61.2,29.86,NW,321,0.0,0.0,81,0.02,RA,,0.05,WeatherDisplay:10.37,2013-09-12 15:08:00,
2013-09-12 11:13:00,67.2,61.2,29.86,NW,321,0.0,0.0,81,0.03,RA,,0.06,WeatherDisplay:10.37,2013-09-12 15:13:00,
2013-09-12 11:18:00,67.3,61.3,29.86,NW,321,0.0,0.0,81,0.03,CLR,,0.06,WeatherDisplay:10.37,2013-09-12 15:18:00,
2013-09-12 11:23:00,66.9,58.0,29.84,NW,321,0.0,0.0,73,0.04,-RA,,0.07,WeatherDisplay:10.37,2013-09-12 15:23:00,
2013-09-12 11:28:00,66.9,58.0,29.84,NW,321,0.0,0.0,73,0.04,-RA,,0.07,WeatherDisplay:10.37,2013-09-12 15:28:00,
2013-09-12 11:33:00,67.3,58.3,29.84,NW,321,0.0,0.0,73,0.04,-RA,,0.07,WeatherDisplay:10.37,2013-09-12 15:33:00,
2013-09-12 11:38:00,67.8,58.8,29.84,NW,321,0.0,0.0,73,0.04,-RA,,0.07,WeatherDisplay:10.37,2013-09-12 15:38:00,
2013-09-12 11:43:00,68.0,59.0,29.84,NW,321,0.0,0.0,73,0.04,-RA,,0.07,WeatherDisplay:10.37,2013-09-12 15:43:00,
2013-09-12 11:48:00,68.1,59.1,29.84,NW,321,0.0,0.0,73,0.04,-RA,,0.07,WeatherDisplay:10.37,2013-09-12 15:48:00,
2013-09-12 11:53:00,68.0,59.0,29.84,NW,321,0.0,0.0,73,0.04,-RA,,0.07,WeatherDisplay:10.37,2013-09-12 15:53:00,
2013-09-12 11:58:00,67.7,58.7,29.84,NW,321,0.0,0.0,73,0.04,-RA,,0.07,WeatherDisplay:10.37,2013-09-12 15:58:00,
2013-09-12 12:03:00,67.8,58.8,29.84,NW,321,0.0,0.0,73,0.03,-RA,,0.07,WeatherDisplay:10.37,2013-09-12 16:03:00,
2013-09-12 12:08:00,67.8,58.8,29.84,NW,321,0.0,0.0,73,0.02,-RA,,0.07,WeatherDisplay:10.37,2013-09-12 16:08:00,
2013-09-12 12:13:00,67.7,58.7,29.84,NW,321,0.0,0.0,73,0.01,-RA,,0.07,WeatherDisplay:10.37,2013-09-12 16:13:00,
2013-09-12 12:18:00,67.7,58.7,29.84,NW,321,0.0,0.0,73,0.01,-RA,,0.07,WeatherDisplay:10.37,2013-09-12 16:18:00,
2013-09-12 12:23:00,67.6,58.6,29.84,NW,321,0.0,0.0,73,0.00,-RA,,0.07,WeatherDisplay:10.37,2013-09-12 16:23:00,
2013-09-12 12:28:00,67.9,58.9,29.84,NW,321,0.0,0.0,73,0.00,-RA,,0.07,WeatherDisplay:10.37,2013-09-12 16:28:00,
2013-09-12 12:33:00,68.6,59.6,29.84,NW,321,0.0,0.0,73,0.00,-RA,,0.07,WeatherDisplay:10.37,2013-09-12 16:33:00,
2013-09-12 12:38:00,69.0,60.0,29.84,NW,321,0.0,0.0,73,0.00,-RA,,0.07,WeatherDisplay:10.37,2013-09-12 16:38:00,
2013-09-12 12:43:00,68.9,59.9,29.84,NW,321,0.0,0.0,73,0.00,-RA,,0.07,WeatherDisplay:10.37,2013-09-12 16:43:00,
2013-09-12 12:48:00,70.6,61.5,29.84,NW,321,0.0,0.0,73,0.00,-RA,,0.07,WeatherDisplay:10.37,2013-09-12 16:48:00,
2013-09-12 12:53:00,69.7,60.7,29.84,NW,321,0.0,0.0,73,0.00,-RA,,0.07,WeatherDisplay:10.37,2013-09-12 16:53:00,
2013-09-12 12:58:00,70.3,61.2,29.84,NW,321,0.0,0.0,73,0.00,-RA,,0.07,WeatherDisplay:10.37,2013-09-12 16:58:00,
2013-09-12 13:03:00,70.3,66.2,29.80,NW,321,0.0,0.0,87,0.00,SCT,,0.07,WeatherDisplay:10.37,2013-09-12 17:03:00,
2013-09-12 13:08:00,70.1,66.0,29.80,NW,321,0.0,0.0,87,0.00,SCT,,0.07,WeatherDisplay:10.37,2013-09-12 17:08:00,
2013-09-12 13:13:00,70.8,66.7,29.80,NW,321,0.0,0.0,87,0.00,SCT,,0.07,WeatherDisplay:10.37,2013-09-12 17:13:00,
2013-09-12 13:18:00,71.2,67.1,29.80,NW,321,0.0,0.0,87,0.00,SCT,,0.07,WeatherDisplay:10.37,2013-09-12 17:18:00,
2013-09-12 13:23:00,71.7,68.0,29.80,NW,321,0.0,0.0,88,0.00,BKN,,0.07,WeatherDisplay:10.37,2013-09-12 17:23:00,
2013-09-12 13:28:00,72.3,68.5,29.80,NW,321,0.0,0.0,88,0.00,BKN,,0.07,WeatherDisplay:10.37,2013-09-12 17:28:00,
2013-09-12 13:33:00,72.3,68.5,29.80,NW,321,0.0,0.0,88,0.00,BKN,,0.07,WeatherDisplay:10.37,2013-09-12 17:33:00,
2013-09-12 13:38:00,72.5,68.7,29.80,NW,321,0.0,0.0,88,0.00,BKN,,0.07,WeatherDisplay:10.37,2013-09-12 17:38:00,
2013-09-12 13:43:00,72.7,68.9,29.80,NW,321,0.0,0.0,88,0.00,BKN,,0.07,WeatherDisplay:10.37,2013-09-12 17:43:00,
2013-09-12 13:48:00,72.9,69.1,29.80,NW,321,0.0,0.0,88,0.00,BKN,,0.07,WeatherDisplay:10.37,2013-09-12 17:48:00,
2013-09-12 13:53:00,72.8,69.0,29.80,NW,321,1.1,0.0,88,0.00,BKN,,0.07,WeatherDisplay:10.37,2013-09-12 17:53:00,
2013-09-12 13:58:00,72.6,68.8,29.80,NW,321,0.0,0.0,88,0.00,BKN,,0.07,WeatherDisplay:10.37,2013-09-12 17:58:00,
2013-09-12 14:03:00,72.5,68.7,29.80,NW,321,1.1,1.1,88,0.00,BKN,,0.07,WeatherDisplay:10.37,2013-09-12 18:03:00,
2013-09-12 14:08:00,72.7,68.9,29.80,NW,321,0.0,0.0,88,0.00,BKN,,0.07,WeatherDisplay:10.37,2013-09-12 18:08:00,
2013-09-12 14:13:00,73.0,69.2,29.80,NW,321,0.0,0.0,88,0.00,BKN,,0.07,WeatherDisplay:10.37,2013-09-12 18:13:00,
2013-09-12 14:18:00,72.9,69.1,29.80,NW,321,0.0,0.0,88,0.00,BKN,,0.07,WeatherDisplay:10.37,2013-09-12 18:18:00,
2013-09-12 14:23:00,72.5,68.7,29.80,NW,321,0.0,0.0,88,0.00,BKN,,0.07,WeatherDisplay:10.37,2013-09-12 18:23:00,
2013-09-12 14:28:00,72.4,68.6,29.80,NW,321,0.0,0.0,88,0.00,BKN,,0.07,WeatherDisplay:10.37,2013-09-12 18:28:00,
2013-09-12 14:33:00,72.2,68.4,29.80,NW,321,0.0,0.0,88,0.00,BKN,,0.07,WeatherDisplay:10.37,2013-09-12 18:33:00,
2013-09-12 14:38:00,71.9,68.2,29.80,NW,321,0.0,0.0,88,0.00,BKN,,0.07,WeatherDisplay:10.37,2013-09-12 18:38:00,
2013-09-12 14:43:00,71.6,69.8,29.76,NW,321,0.0,0.0,94,0.00,BKN,,0.07,WeatherDisplay:10.37,2013-09-12 18:43:00,
2013-09-12 14:48:00,71.2,69.4,29.76,NW,321,0.0,0.0,94,0.00,BKN,,0.07,WeatherDisplay:10.37,2013-09-12 18:48:00,
2013-09-12 14:53:00,71.0,69.2,29.76,NW,321,0.0,0.0,94,0.01,BKN,,0.09,WeatherDisplay:10.37,2013-09-12 18:53:00,
2013-09-12 14:58:00,70.6,68.8,29.76,NW,321,0.0,0.0,94,0.03,RA,,0.10,WeatherDisplay:10.37,2013-09-12 18:58:00,
2013-09-12 15:03:00,70.4,69.5,29.76,NW,321,0.0,0.0,97,0.04,-RA,,0.11,WeatherDisplay:10.37,2013-09-12 19:03:00,
2013-09-12 15:08:00,70.1,69.2,29.76,NW,321,0.0,0.0,97,0.05,-RA,,0.12,WeatherDisplay:10.37,2013-09-12 19:08:00,
2013-09-12 15:13:00,70.0,68.2,29.75,NW,321,0.0,0.0,94,0.06,OVC,,0.13,WeatherDisplay:10.37,2013-09-12 19:13:00,
2013-09-12 15:18:00,69.8,68.0,29.75,NW,321,0.0,0.0,94,0.08,RA,,0.15,WeatherDisplay:10.37,2013-09-12 19:18:00,
2013-09-12 15:23:00,69.9,69.9,29.74,NW,321,0.0,0.0,100,0.08,BKN,,0.15,WeatherDisplay:10.37,2013-09-12 19:23:00,
2013-09-12 15:28:00,69.9,69.9,29.74,NW,321,0.0,0.0,100,0.09,BKN,,0.16,WeatherDisplay:10.37,2013-09-12 19:28:00,
2013-09-12 15:33:00,69.9,69.9,29.74,NW,321,0.0,0.0,100,0.10,BKN,,0.17,WeatherDisplay:10.37,2013-09-12 19:33:00,
2013-09-12 15:38:00,69.9,69.9,29.74,NW,321,0.0,0.0,100,0.11,BKN,,0.18,WeatherDisplay:10.37,2013-09-12 19:38:00,
2013-09-12 15:43:00,70.0,70.0,29.74,NW,321,0.0,0.0,100,0.12,BKN,,0.19,WeatherDisplay:10.37,2013-09-12 19:43:00,
2013-09-12 15:48:00,70.3,70.3,29.74,NW,324,0.0,0.0,100,0.13,RA,,0.20,WeatherDisplay:10.37,2013-09-12 19:48:00,
2013-09-12 15:53:00,70.1,70.1,29.74,NW,324,2.3,2.3,100,0.12,BKN,,0.20,WeatherDisplay:10.37,2013-09-12 19:53:00,
2013-09-12 15:58:00,69.5,69.5,29.74,NW,324,0.0,0.0,100,0.10,BKN,,0.20,WeatherDisplay:10.37,2013-09-12 19:58:00,
2013-09-12 16:03:00,69.4,69.4,29.74,NW,324,1.0,0.0,100,0.09,BKN,,0.20,WeatherDisplay:10.37,2013-09-12 20:03:00,
2013-09-12 16:08:00,68.8,68.8,29.74,NW,324,1.1,0.0,100,0.08,BKN,,0.20,WeatherDisplay:10.37,2013-09-12 20:08:00,
2013-09-12 16:13:00,68.3,68.3,29.74,NW,324,0.0,0.0,100,0.07,BKN,,0.20,WeatherDisplay:10.37,2013-09-12 20:13:00,
2013-09-12 16:18:00,67.9,67.9,29.74,NW,324,0.0,0.0,100,0.05,BKN,,0.20,WeatherDisplay:10.37,2013-09-12 20:18:00,
2013-09-12 16:23:00,67.9,67.9,29.74,NW,324,0.0,0.0,100,0.05,BKN,,0.20,WeatherDisplay:10.37,2013-09-12 20:23:00,
2013-09-12 16:28:00,67.7,67.7,29.74,NW,324,0.0,0.0,100,0.04,BKN,,0.20,WeatherDisplay:10.37,2013-09-12 20:28:00,
2013-09-12 16:33:00,67.4,67.4,29.74,NE,36,1.1,1.1,100,0.03,BKN,,0.20,WeatherDisplay:10.37,2013-09-12 20:33:00,
2013-09-12 16:38:00,67.0,67.0,29.74,NE,35,3.5,3.5,100,0.02,BKN,,0.20,WeatherDisplay:10.37,2013-09-12 20:38:00,
2013-09-12 16:43:00,66.3,66.3,29.74,NE,35,0.0,0.0,100,0.02,RA,,0.21,WeatherDisplay:10.37,2013-09-12 20:43:00,
2013-09-12 16:48:00,66.2,66.2,29.74,NE,35,0.0,0.0,100,0.02,BKN,,0.22,WeatherDisplay:10.37,2013-09-12 20:48:00,
2013-09-12 16:53:00,66.1,66.1,29.74,NE,35,0.0,0.0,100,0.03,BKN,,0.23,WeatherDisplay:10.37,2013-09-12 20:53:00,
2013-09-12 16:58:00,65.8,65.8,29.74,NE,35,2.3,2.3,100,0.04,RA,,0.24,WeatherDisplay:10.37,2013-09-12 20:58:00,
2013-09-12 17:03:00,65.5,65.5,29.74,NE,35,0.0,0.0,100,0.05,RA,,0.25,WeatherDisplay:10.37,2013-09-12 21:03:00,
2013-09-12 17:08:00,65.3,65.3,29.74,NE,35,0.0,0.0,100,0.06,BKN,,0.26,WeatherDisplay:10.37,2013-09-12 21:08:00,
2013-09-12 17:13:00,65.6,65.6,29.74,NE,35,1.1,0.0,100,0.07,BKN,,0.27,WeatherDisplay:10.37,2013-09-12 21:13:00,
2013-09-12 17:18:00,65.3,65.3,29.74,NE,35,1.1,1.1,100,0.08,RA,,0.28,WeatherDisplay:10.37,2013-09-12 21:18:00,
2013-09-12 17:23:00,65.2,65.2,29.74,NE,35,0.0,0.0,100,0.08,BKN,,0.28,WeatherDisplay:10.37,2013-09-12 21:23:00,
2013-09-12 17:28:00,65.3,65.3,29.74,NE,35,0.0,0.0,100,0.09,BKN,,0.29,WeatherDisplay:10.37,2013-09-12 21:28:00,
2013-09-12 17:33:00,65.4,65.4,29.74,NE,35,0.0,0.0,100,0.09,BKN,,0.29,WeatherDisplay:10.37,2013-09-12 21:33:00,
2013-09-12 17:38:00,65.4,65.4,29.74,NE,35,0.0,0.0,100,0.09,BKN,,0.29,WeatherDisplay:10.37,2013-09-12 21:38:00,
2013-09-12 17:43:00,65.2,63.1,29.74,NE,35,0.0,0.0,93,0.09,RA,,0.30,WeatherDisplay:10.37,2013-09-12 21:43:00,
2013-09-12 17:48:00,65.2,63.1,29.74,NE,35,0.0,0.0,93,0.08,OVC,,0.30,WeatherDisplay:10.37,2013-09-12 21:48:00,
2013-09-12 17:53:00,65.3,63.2,29.74,NE,36,2.3,2.3,93,0.08,OVC,,0.31,WeatherDisplay:10.37,2013-09-12 21:53:00,
2013-09-12 17:58:00,65.2,63.1,29.74,NE,36,0.0,0.0,93,0.08,OVC,,0.32,WeatherDisplay:10.37,2013-09-12 21:58:00,
2013-09-12 18:03:00,65.2,63.1,29.73,NE,36,0.0,0.0,93,0.08,-RA,,0.33,WeatherDisplay:10.37,2013-09-12 22:03:00,
2013-09-12 18:08:00,65.1,63.0,29.73,NE,36,0.0,0.0,93,0.08,-RA,,0.34,WeatherDisplay:10.37,2013-09-12 22:08:00,
2013-09-12 18:13:00,65.1,65.1,29.72,NE,36,0.0,0.0,100,0.08,RA,,0.35,WeatherDisplay:10.37,2013-09-12 22:13:00,
2013-09-12 18:18:00,65.1,65.1,29.72,NE,36,0.0,0.0,100,0.08,RA,,0.36,WeatherDisplay:10.37,2013-09-12 22:18:00,
2013-09-12 18:23:00,64.9,62.8,29.72,NE,36,0.0,0.0,93,0.08,BKN,,0.36,WeatherDisplay:10.37,2013-09-12 22:23:00,
2013-09-12 18:28:00,65.0,62.9,29.72,NE,36,0.0,0.0,93,0.08,RA,,0.37,WeatherDisplay:10.37,2013-09-12 22:28:00,
2013-09-12 18:33:00,65.0,62.9,29.72,NE,36,0.0,0.0,93,0.08,BKN,,0.37,WeatherDisplay:10.37,2013-09-12 22:33:00,
2013-09-12 18:38:00,65.0,62.9,29.72,NE,36,0.0,0.0,93,0.09,RA,,0.38,WeatherDisplay:10.37,2013-09-12 22:38:00,
2013-09-12 18:43:00,64.9,64.9,29.72,NE,36,0.0,0.0,100,0.08,-RA,,0.38,WeatherDisplay:10.37,2013-09-12 22:43:00,
2013-09-12 18:48:00,64.9,64.9,29.72,NE,36,0.0,0.0,100,0.08,-RA,,0.38,WeatherDisplay:10.37,2013-09-12 22:48:00,
2013-09-12 18:53:00,64.9,64.9,29.72,NE,36,0.0,0.0,100,0.07,-RA,,0.38,WeatherDisplay:10.37,2013-09-12 22:53:00,
2013-09-12 18:58:00,65.0,65.0,29.72,NE,36,0.0,0.0,100,0.06,-RA,,0.38,WeatherDisplay:10.37,2013-09-12 22:58:00,
2013-09-12 19:03:00,64.9,64.9,29.71,NE,36,0.0,0.0,100,0.05,-RA,,0.38,WeatherDisplay:10.37,2013-09-12 23:03:00,
2013-09-12 19:08:00,64.9,64.9,29.71,NE,36,0.0,0.0,100,0.04,-RA,,0.38,WeatherDisplay:10.37,2013-09-12 23:08:00,
2013-09-12 19:13:00,65.0,65.0,29.71,NE,36,0.0,0.0,100,0.03,-RA,,0.38,WeatherDisplay:10.37,2013-09-12 23:13:00,
2013-09-12 19:18:00,65.0,65.0,29.71,NE,36,0.0,0.0,100,0.02,-RA,,0.38,WeatherDisplay:10.37,2013-09-12 23:18:00,
2013-09-12 19:23:00,64.9,64.9,29.71,NE,36,0.0,0.0,100,0.02,-RA,,0.38,WeatherDisplay:10.37,2013-09-12 23:23:00,
2013-09-12 19:28:00,64.7,64.7,29.71,NE,36,0.0,0.0,100,0.01,-RA,,0.38,WeatherDisplay:10.37,2013-09-12 23:28:00,
2013-09-12 19:33:00,64.7,64.7,29.70,NE,36,0.0,0.0,100,0.01, +RA,,0.38,WeatherDisplay:10.37,2013-09-12 23:33:00,
2013-09-12 19:38:00,64.6,64.6,29.70,NE,36,0.0,0.0,100,0.01, +RA,,0.39,WeatherDisplay:10.37,2013-09-12 23:38:00,
2013-09-12 19:43:00,64.3,64.3,29.70,NE,36,0.0,0.0,100,0.01, +RA,,0.39,WeatherDisplay:10.37,2013-09-12 23:43:00,
2013-09-12 19:48:00,64.5,64.5,29.70,NE,36,0.0,0.0,100,0.02, +RA,,0.40,WeatherDisplay:10.37,2013-09-12 23:48:00,
2013-09-12 19:53:00,64.5,64.5,29.70,NE,36,0.0,0.0,100,0.02, +RA,,0.40,WeatherDisplay:10.37,2013-09-12 23:53:00,
2013-09-12 19:58:00,64.5,64.5,29.70,NE,36,0.0,0.0,100,0.02, +RA,,0.40,WeatherDisplay:10.37,2013-09-12 23:58:00,
2013-09-12 20:03:00,64.4,64.4,29.70,NE,36,0.0,0.0,100,0.02, +RA,,0.40,WeatherDisplay:10.37,2013-09-13 00:03:00,
2013-09-12 20:08:00,64.4,64.4,29.70,NE,36,0.0,0.0,100,0.02, +RA,,0.40,WeatherDisplay:10.37,2013-09-13 00:08:00,
2013-09-12 20:13:00,64.4,64.4,29.71,NE,36,0.0,0.0,100,0.03,RA,,0.41,WeatherDisplay:10.37,2013-09-13 00:13:00,
2013-09-12 20:18:00,64.4,64.4,29.71,NE,36,0.0,0.0,100,0.04,RA,,0.42,WeatherDisplay:10.37,2013-09-13 00:18:00,
2013-09-12 20:23:00,64.1,64.1,29.71,NE,36,0.0,0.0,100,0.05,RA,,0.43,WeatherDisplay:10.37,2013-09-13 00:23:00,
2013-09-12 20:28:00,64.3,64.3,29.71,NE,36,0.0,0.0,100,0.05,OVC,,0.43,WeatherDisplay:10.37,2013-09-13 00:28:00,
2013-09-12 20:33:00,63.8,63.8,29.72,NE,36,0.0,0.0,100,0.06,-RA,,0.44,WeatherDisplay:10.37,2013-09-13 00:33:00,
2013-09-12 20:38:00,63.9,63.9,29.72,NE,36,0.0,0.0,100,0.07,-RA,,0.46,WeatherDisplay:10.37,2013-09-13 00:38:00,
2013-09-12 20:43:00,64.0,64.0,29.72,NE,36,0.0,0.0,100,0.09,-RA,,0.48,WeatherDisplay:10.37,2013-09-13 00:43:00,
2013-09-12 20:48:00,63.9,63.9,29.72,NE,36,0.0,0.0,100,0.09,-RA,,0.49,WeatherDisplay:10.37,2013-09-13 00:48:00,
2013-09-12 20:53:00,63.9,63.9,29.72,NE,36,0.0,0.0,100,0.10,-RA,,0.50,WeatherDisplay:10.37,2013-09-13 00:53:00,
2013-09-12 20:58:00,64.0,64.0,29.72,NE,36,1.1,1.1,100,0.12,-RA,,0.52,WeatherDisplay:10.37,2013-09-13 00:58:00,
2013-09-12 21:03:00,64.3,64.3,29.70,NE,36,0.0,0.0,100,0.13,-RA,,0.53,WeatherDisplay:10.37,2013-09-13 01:03:00,
2013-09-12 21:08:00,64.2,64.2,29.70,NE,36,0.0,0.0,100,0.13,-RA,,0.53,WeatherDisplay:10.37,2013-09-13 01:08:00,
2013-09-12 21:13:00,64.4,64.4,29.70,NE,36,0.0,0.0,100,0.12,-RA,,0.53,WeatherDisplay:10.37,2013-09-13 01:13:00,
2013-09-12 21:18:00,64.1,64.1,29.70,NE,36,0.0,0.0,100,0.11,-RA,,0.53,WeatherDisplay:10.37,2013-09-13 01:18:00,
2013-09-12 21:23:00,64.0,64.0,29.70,NE,36,0.0,0.0,100,0.10,-RA,,0.53,WeatherDisplay:10.37,2013-09-13 01:23:00,
2013-09-12 21:28:00,64.0,64.0,29.70,NE,36,0.0,0.0,100,0.10,-RA,,0.53,WeatherDisplay:10.37,2013-09-13 01:28:00,
2013-09-12 21:33:00,64.3,64.3,29.70,NE,36,0.0,0.0,100,0.09,-RA,,0.53,WeatherDisplay:10.37,2013-09-13 01:33:00,
2013-09-12 21:38:00,64.0,64.0,29.70,NE,36,0.0,0.0,100,0.07,-RA,,0.53,WeatherDisplay:10.37,2013-09-13 01:38:00,
2013-09-12 21:43:00,63.8,63.8,29.70,NE,36,0.0,0.0,100,0.05,-RA,,0.53,WeatherDisplay:10.37,2013-09-13 01:43:00,
2013-09-12 21:48:00,63.7,63.7,29.70,NE,36,0.0,0.0,100,0.04,-RA,,0.53,WeatherDisplay:10.37,2013-09-13 01:48:00,
2013-09-12 21:53:00,64.0,64.0,29.70,NE,36,0.0,0.0,100,0.03,-RA,,0.53,WeatherDisplay:10.37,2013-09-13 01:53:00,
2013-09-12 21:58:00,63.9,63.9,29.70,NE,36,0.0,0.0,100,0.01,-RA,,0.53,WeatherDisplay:10.37,2013-09-13 01:58:00,
2013-09-12 22:03:00,63.5,63.5,29.70,NE,36,0.0,0.0,100,0.00,OVC,,0.53,WeatherDisplay:10.37,2013-09-13 02:03:00,
2013-09-12 22:08:00,63.4,63.4,29.70,NE,36,0.0,0.0,100,0.00,OVC,,0.53,WeatherDisplay:10.37,2013-09-13 02:08:00,
2013-09-12 22:13:00,63.3,63.3,29.70,NE,36,0.0,0.0,100,0.00,OVC,,0.53,WeatherDisplay:10.37,2013-09-13 02:13:00,
2013-09-12 22:18:00,63.4,63.4,29.70,NE,36,0.0,0.0,100,0.00,OVC,,0.53,WeatherDisplay:10.37,2013-09-13 02:18:00,
2013-09-12 22:23:00,63.4,63.4,29.70,NE,36,0.0,0.0,100,0.00,OVC,,0.53,WeatherDisplay:10.37,2013-09-13 02:23:00,
2013-09-12 22:28:00,63.3,63.3,29.70,NE,36,0.0,0.0,100,0.00,OVC,,0.53,WeatherDisplay:10.37,2013-09-13 02:28:00,
2013-09-12 22:33:00,63.0,63.0,29.70,NE,36,0.0,0.0,100,0.00,OVC,,0.53,WeatherDisplay:10.37,2013-09-13 02:33:00,
2013-09-12 22:38:00,63.1,63.1,29.70,NE,36,0.0,0.0,100,0.00,OVC,,0.53,WeatherDisplay:10.37,2013-09-13 02:38:00,
2013-09-12 22:43:00,63.2,63.2,29.70,NE,36,0.0,0.0,100,0.00,OVC,,0.53,WeatherDisplay:10.37,2013-09-13 02:43:00,
2013-09-12 22:48:00,63.3,63.3,29.70,NE,36,0.0,0.0,100,0.00,OVC,,0.54,WeatherDisplay:10.37,2013-09-13 02:48:00,
2013-09-12 22:53:00,63.1,63.1,29.70,NE,36,0.0,0.0,100,0.01,OVC,,0.54,WeatherDisplay:10.37,2013-09-13 02:53:00,
2013-09-12 22:58:00,62.9,62.9,29.70,NE,36,0.0,0.0,100,0.02,OVC,,0.55,WeatherDisplay:10.37,2013-09-13 02:58:00,
2013-09-12 23:03:00,62.9,62.9,29.70,NE,36,0.0,0.0,100,0.03,OVC,,0.56,WeatherDisplay:10.37,2013-09-13 03:03:00,
2013-09-12 23:08:00,62.9,62.9,29.70,NE,36,0.0,0.0,100,0.04,RA,,0.57,WeatherDisplay:10.37,2013-09-13 03:08:00,
2013-09-12 23:13:00,63.0,63.0,29.70,NE,36,0.0,0.0,100,0.05,RA,,0.58,WeatherDisplay:10.37,2013-09-13 03:13:00,
2013-09-12 23:18:00,63.0,63.0,29.70,NE,36,0.0,0.0,100,0.06,OVC,,0.59,WeatherDisplay:10.37,2013-09-13 03:18:00,
2013-09-12 23:23:00,63.1,63.1,29.70,NE,36,0.0,0.0,100,0.07,OVC,,0.60,WeatherDisplay:10.37,2013-09-13 03:23:00,
2013-09-12 23:28:00,63.1,63.1,29.70,NE,36,0.0,0.0,100,0.08,OVC,,0.62,WeatherDisplay:10.37,2013-09-13 03:28:00,
2013-09-12 23:33:00,63.2,63.2,29.70,NE,36,0.0,0.0,100,0.09,OVC,,0.62,WeatherDisplay:10.37,2013-09-13 03:33:00,
2013-09-12 23:38:00,63.0,63.0,29.70,NE,36,0.0,0.0,100,0.10,OVC,,0.63,WeatherDisplay:10.37,2013-09-13 03:38:00,
2013-09-12 23:43:00,63.0,63.0,29.69,NE,36,0.0,0.0,100,0.12,-RA,,0.65,WeatherDisplay:10.37,2013-09-13 03:43:00,
2013-09-12 23:48:00,63.1,63.1,29.69,NE,36,0.0,0.0,100,0.13,-RA,,0.66,WeatherDisplay:10.37,2013-09-13 03:48:00,
2013-09-12 23:53:00,63.0,63.0,29.69,NE,36,0.0,0.0,100,0.13,-RA,,0.67,WeatherDisplay:10.37,2013-09-13 03:53:00,
2013-09-12 23:58:00,63.0,63.0,29.69,NE,36,0.0,0.0,100,0.13,-RA,,0.68,WeatherDisplay:10.37,2013-09-13 03:58:00,